Time;durP1;ratioP1;P1;durP2;ratioP2;P2;SDS_P1;SDS_P2;PMS_P1;PMS_P2;Temp;Humidity;BMP_temperature;BMP_pressure;BME280_temperature;BME280_humidity;BME280_pressure;Samples;Min_cycle;Max_cycle;Signal;HPM_P1;HPM_P2
2023/03/21 00:01:12;;;;;;;11.52;5.50;;;;;;;5.68;46.37;99447.06;5015723;28;20448;-55
2023/03/21 00:03:38;;;;;;;10.07;5.00;;;;;;;5.66;46.19;99443.66;5013161;28;20030;-56
2023/03/21 00:06:05;;;;;;;8.82;5.13;;;;;;;5.60;46.56;99442.25;5012841;28;20033;-55
2023/03/21 00:08:31;;;;;;;10.15;5.20;;;;;;;5.54;46.68;99421.41;5013012;28;20103;-55
2023/03/21 00:11:01;;;;;;;10.85;4.72;;;;;;;5.52;46.86;99434.78;5029705;28;20041;-57
2023/03/21 00:13:31;;;;;;;7.88;4.97;;;;;;;5.49;46.76;99437.63;5031610;28;20048;-52
2023/03/21 00:16:02;;;;;;;11.23;5.40;;;;;;;5.47;46.78;99428.94;5032198;28;20025;-53
2023/03/21 00:18:27;;;;;;;11.02;5.10;;;;;;;5.45;46.97;99418.44;5032414;28;20056;-53
2023/03/21 00:21:01;;;;;;;8.30;4.70;;;;;;;5.56;46.37;99431.00;5031578;28;20437;-52
2023/03/21 00:23:28;;;;;;;7.93;4.93;;;;;;;5.53;46.08;99425.03;5032406;28;20498;-54
2023/03/21 00:25:54;;;;;;;7.93;4.88;;;;;;;5.50;46.46;99420.75;5031744;28;20033;-52
2023/03/21 00:28:20;;;;;;;11.35;4.50;;;;;;;5.50;46.61;99419.91;5032320;28;20040;-54
2023/03/21 00:30:45;;;;;;;10.00;5.20;;;;;;;5.50;46.57;99415.44;5032844;28;20037;-57
2023/03/21 00:33:12;;;;;;;8.43;4.40;;;;;;;5.49;46.50;99413.75;5032207;28;20124;-53
2023/03/21 00:35:41;;;;;;;8.23;4.70;;;;;;;5.49;46.78;99418.22;5012502;28;20030;-55
2023/03/21 00:38:06;;;;;;;12.15;4.53;;;;;;;5.50;46.68;99411.94;5012281;28;20136;-56
2023/03/21 00:40:32;;;;;;;9.73;5.43;;;;;;;5.51;46.50;99409.19;5012437;28;20128;-55
2023/03/21 00:42:57;;;;;;;9.45;4.80;;;;;;;5.50;46.67;99402.16;5011454;28;20026;-51
2023/03/21 00:45:23;;;;;;;8.65;4.25;;;;;;;5.48;45.82;99409.38;5012032;28;20113;-53
2023/03/21 00:47:48;;;;;;;7.03;4.57;;;;;;;5.46;46.15;99404.19;5012497;28;20041;-59
2023/03/21 00:50:14;;;;;;;8.13;4.30;;;;;;;5.41;45.50;99397.47;5029602;28;20034;-58
2023/03/21 00:52:40;;;;;;;5.57;3.78;;;;;;;5.41;46.08;99398.31;5032259;28;20096;-53
2023/03/21 00:55:06;;;;;;;9.45;4.32;;;;;;;5.39;46.26;99400.22;5031731;28;20033;-55
2023/03/21 00:57:31;;;;;;;15.55;4.82;;;;;;;5.42;46.61;99401.84;5032191;28;20095;-54
2023/03/21 00:59:57;;;;;;;9.80;5.07;;;;;;;5.27;47.22;99367.38;5015184;28;20022;-56
2023/03/21 01:02:26;;;;;;;12.07;5.22;;;;;;;5.42;47.22;99392.03;5012402;28;20112;-56
2023/03/21 01:04:54;;;;;;;12.90;5.25;;;;;;;5.48;46.88;99397.94;5011999;28;20041;-56
2023/03/21 01:07:20;;;;;;;10.55;5.80;;;;;;;5.28;47.66;99358.47;5012213;28;20045;-52
2023/03/21 01:09:45;;;;;;;12.82;5.78;;;;;;;5.46;46.86;99395.38;5013540;28;20044;-53
2023/03/21 01:12:11;;;;;;;12.63;5.28;;;;;;;5.42;47.20;99389.41;5015289;28;20113;-53
2023/03/21 01:14:36;;;;;;;12.30;5.80;;;;;;;5.42;46.81;99385.91;5029985;28;20029;-53
2023/03/21 01:17:03;;;;;;;13.15;5.25;;;;;;;5.45;46.78;99380.38;5035340;28;20034;-55
2023/03/21 01:19:29;;;;;;;13.05;5.72;;;;;;;5.41;47.10;99376.25;5034335;28;20467;-57
2023/03/21 01:21:55;;;;;;;12.23;5.55;;;;;;;5.41;47.22;99376.25;5035525;28;20426;-55
2023/03/21 01:24:21;;;;;;;10.45;5.70;;;;;;;5.39;47.27;99365.72;5019536;28;20062;-58
2023/03/21 01:26:46;;;;;;;14.70;5.80;;;;;;;5.45;47.29;99361.81;5015891;28;20113;-56
2023/03/21 01:29:12;;;;;;;12.00;5.18;;;;;;;5.31;47.42;99336.19;5019880;28;20132;-53
2023/03/21 01:31:37;;;;;;;12.40;5.40;;;;;;;5.45;47.35;99349.41;5034959;28;20037;-54
2023/03/21 01:34:03;;;;;;;8.95;5.32;;;;;;;5.52;47.13;99359.59;5035013;28;20128;-52
2023/03/21 01:36:28;;;;;;;10.98;5.30;;;;;;;5.36;47.65;99330.56;5034987;28;20032;-53
2023/03/21 01:38:54;;;;;;;10.38;4.80;;;;;;;5.57;47.45;99361.00;5024483;28;20049;-51
2023/03/21 01:41:34;;;;;;;10.63;5.18;;;;;;;5.67;47.08;99360.34;5015461;28;20041;-54
2023/03/21 01:43:59;;;;;;;10.85;5.10;;;;;;;5.64;46.61;99363.22;5015087;28;20037;-52
2023/03/21 01:46:36;;;;;;;8.95;5.13;;;;;;;5.71;46.44;99359.19;5015051;28;20481;-54
2023/03/21 01:49:04;;;;;;;8.40;4.80;;;;;;;5.69;46.39;99355.78;5015285;28;20572;-51
2023/03/21 01:51:35;;;;;;;9.52;5.30;;;;;;;5.65;46.31;99363.09;5013893;28;20058;-56
2023/03/21 01:54:01;;;;;;;8.50;4.60;;;;;;;5.62;46.41;99360.66;5014837;28;20330;-56
2023/03/21 01:56:33;;;;;;;10.43;5.03;;;;;;;5.62;46.51;99343.88;5014094;28;20453;-57
2023/03/21 01:59:11;;;;;;;11.75;5.47;;;;;;;5.49;46.62;99318.16;5022894;28;20045;-57
2023/03/21 02:01:41;;;;;;;9.70;5.28;;;;;;;5.62;46.85;99359.81;5033580;28;20182;-57
2023/03/21 02:04:07;;;;;;;9.43;5.47;;;;;;;5.59;46.77;99343.16;5034449;28;20026;-56
2023/03/21 02:06:42;;;;;;;7.55;5.32;;;;;;;5.69;46.71;99347.81;5034830;28;20029;-54
2023/03/21 02:09:12;;;;;;;7.47;4.70;;;;;;;5.50;46.45;99327.81;5034372;28;20467;-52
2023/03/21 02:11:38;;;;;;;9.90;4.70;;;;;;;5.56;47.15;99346.00;5029793;28;20056;-54
2023/03/21 02:14:04;;;;;;;10.65;5.20;;;;;;;5.32;46.72;99311.34;5024381;28;20122;-52
2023/03/21 02:16:54;;;;;;;11.80;4.72;;;;;;;5.59;47.32;99343.16;5025063;28;20033;-57
2023/03/21 02:19:22;;;;;;;8.85;5.03;;;;;;;5.58;46.79;99333.47;5024113;28;20038;-56
2023/03/21 02:22:04;;;;;;;8.27;4.93;;;;;;;5.55;46.99;99331.03;5021828;28;20038;-57
2023/03/21 02:25:02;;;;;;;6.70;4.68;;;;;;;5.62;45.89;99335.94;5022091;28;20030;-56
2023/03/21 02:27:33;;;;;;;8.70;4.75;;;;;;;5.56;46.09;99327.44;5018438;28;20092;-53
2023/03/21 02:29:59;;;;;;;9.77;4.68;;;;;;;5.57;45.59;99334.44;5024751;28;20095;-58
2023/03/21 02:32:46;;;;;;;10.52;5.15;;;;;;;5.60;45.60;99328.91;5033659;28;20044;-61
2023/03/21 02:35:22;;;;;;;8.57;5.05;;;;;;;5.57;46.04;99323.81;5033975;28;20033;-56
2023/03/21 02:37:57;;;;;;;10.05;5.22;;;;;;;5.61;46.62;99324.44;5032897;28;20145;-55
2023/03/21 02:40:26;;;;;;;12.85;5.20;;;;;;;5.60;45.72;99328.91;5033745;28;20505;-54
2023/03/21 02:43:10;;;;;;;10.75;5.18;;;;;;;5.66;46.22;99324.97;5017279;28;20045;-55
2023/03/21 02:46:05;;;;;;;10.40;5.05;;;;;;;5.67;45.74;99326.69;5014193;28;20034;-53
2023/03/21 02:48:38;;;;;;;11.32;5.38;;;;;;;5.57;45.73;99325.59;5013778;28;20038;-58
2023/03/21 02:51:06;;;;;;;9.50;5.70;;;;;;;5.51;46.02;99329.53;5015550;28;20032;-53
2023/03/21 02:53:36;;;;;;;12.00;5.18;;;;;;;5.49;45.83;99323.47;5033757;28;20025;-53
2023/03/21 02:56:03;;;;;;;10.65;5.30;;;;;;;5.29;46.27;99304.41;5033657;28;20021;-55
2023/03/21 02:58:31;;;;;;;12.38;5.80;;;;;;;5.41;46.32;99320.50;5033433;28;20029;-56
2023/03/21 03:00:57;;;;;;;7.97;5.22;;;;;;;5.42;46.31;99320.38;5032336;28;20368;-55
2023/03/21 03:03:22;;;;;;;14.00;5.55;;;;;;;5.24;46.60;99285.31;5033814;28;20037;-56
2023/03/21 03:05:52;;;;;;;8.43;4.97;;;;;;;5.46;46.07;99313.91;5033051;28;20440;-55
2023/03/21 03:08:26;;;;;;;15.80;6.03;;;;;;;5.50;46.17;99319.03;5033173;28;20033;-58
2023/03/21 03:11:17;;;;;;;12.82;5.40;;;;;;;5.51;47.18;99310.94;5033478;28;20136;-57
2023/03/21 03:13:50;;;;;;;10.00;5.32;;;;;;;5.46;46.91;99311.25;5033411;28;20029;-56
2023/03/21 03:16:53;;;;;;;9.40;5.05;;;;;;;5.49;46.79;99307.53;5011732;28;20026;-56
2023/03/21 03:19:26;;;;;;;9.10;5.78;;;;;;;5.46;46.83;99302.44;5013057;28;20034;-56
2023/03/21 03:22:00;;;;;;;10.68;5.20;;;;;;;5.45;47.57;99295.44;5013559;28;20475;-57
2023/03/21 03:24:35;;;;;;;10.30;5.57;;;;;;;5.42;47.30;99288.50;5013635;28;20029;-60
2023/03/21 03:27:09;;;;;;;7.53;5.57;;;;;;;5.47;46.92;99288.19;5013198;28;20349;-57
2023/03/21 03:29:39;;;;;;;7.97;5.47;;;;;;;5.39;46.99;99286.06;5013354;28;20041;-56
2023/03/21 03:32:16;;;;;;;9.27;4.82;;;;;;;5.44;46.47;99288.41;5013158;28;20119;-57
2023/03/21 03:34:49;;;;;;;13.02;5.22;;;;;;;5.44;46.94;99293.72;5012314;28;20179;-57
2023/03/21 03:37:19;;;;;;;7.70;5.05;;;;;;;5.42;45.92;99287.66;5013358;28;20045;-56
2023/03/21 03:39:50;;;;;;;8.90;4.95;;;;;;;5.45;46.81;99290.13;5012928;28;20042;-50
2023/03/21 03:42:26;;;;;;;13.50;5.82;;;;;;;5.51;46.70;99295.00;5025780;28;20045;-55
2023/03/21 03:44:52;;;;;;;13.50;5.60;;;;;;;5.46;46.31;99289.16;5033112;28;20460;-54
2023/03/21 03:47:43;;;;;;;10.35;5.70;;;;;;;5.61;46.54;99287.25;5032457;28;20026;-53
2023/03/21 03:50:17;;;;;;;13.57;5.20;;;;;;;5.55;46.68;99293.00;5031996;28;20049;-55
2023/03/21 03:52:50;;;;;;;11.43;5.60;;;;;;;5.35;46.73;99257.19;5032841;28;20040;-55
2023/03/21 03:55:20;;;;;;;11.00;5.72;;;;;;;5.50;46.53;99288.00;5032548;28;20109;-56
2023/03/21 03:57:46;;;;;;;13.55;6.38;;;;;;;5.22;46.49;99246.56;5012997;28;20409;-55
2023/03/21 04:00:14;;;;;;;8.15;5.13;;;;;;;5.42;47.40;99290.31;5012938;28;20061;-58
2023/03/21 04:02:40;;;;;;;9.57;5.72;;;;;;;5.40;46.49;99287.75;5013027;28;20468;-53
2023/03/21 04:05:06;;;;;;;12.68;6.25;;;;;;;5.42;46.95;99285.03;5012190;28;20125;-63
2023/03/21 04:07:32;;;;;;;9.85;5.88;;;;;;;5.42;46.34;99279.72;5020438;28;20438;-57
2023/03/21 04:09:58;;;;;;;10.32;5.80;;;;;;;5.41;46.43;99268.22;5012317;28;20141;-57
2023/03/21 04:12:24;;;;;;;12.70;5.85;;;;;;;5.51;45.79;99281.72;5012024;28;20029;-57
2023/03/21 04:14:50;;;;;;;16.10;6.15;;;;;;;5.53;45.67;99279.81;5012630;28;20104;-56
2023/03/21 04:17:16;;;;;;;11.10;5.40;;;;;;;5.55;46.18;99280.59;5012614;28;20116;-56
2023/03/21 04:19:42;;;;;;;9.52;5.15;;;;;;;5.40;45.32;99247.09;5012616;28;20067;-53
2023/03/21 04:22:07;;;;;;;24.13;6.60;;;;;;;5.60;45.64;99273.16;5012805;28;20030;-58
2023/03/21 04:24:36;;;;;;;12.02;6.13;;;;;;;5.59;45.72;99268.78;5012266;28;20029;-52
2023/03/21 04:27:02;;;;;;;16.23;6.40;;;;;;;5.64;45.42;99275.59;5012297;28;20119;-57
2023/03/21 04:29:28;;;;;;;12.32;6.30;;;;;;;5.60;45.58;99261.66;5013113;28;20489;-55
2023/03/21 04:31:54;;;;;;;10.20;5.50;;;;;;;5.71;45.22;99279.50;5028284;28;20041;-55
2023/03/21 04:34:22;;;;;;;12.63;5.93;;;;;;;5.76;45.62;99272.06;5031972;28;20033;-52
2023/03/21 04:36:52;;;;;;;11.93;5.57;;;;;;;5.86;45.29;99272.28;5031610;28;20038;-54
2023/03/21 04:39:19;;;;;;;8.70;5.82;;;;;;;5.85;45.18;99266.13;5041300;28;20033;-53
2023/03/21 04:41:45;;;;;;;9.05;5.63;;;;;;;5.95;44.36;99278.75;5039803;28;20040;-57
2023/03/21 04:44:14;;;;;;;11.43;6.50;;;;;;;6.00;44.70;99285.44;5042154;28;20049;-56
2023/03/21 04:46:40;;;;;;;10.55;5.97;;;;;;;5.87;44.63;99247.41;5046054;28;20048;-59
2023/03/21 04:49:06;;;;;;;11.63;6.30;;;;;;;6.13;44.72;99277.50;5052941;28;20103;-56
2023/03/21 04:51:32;;;;;;;14.98;5.97;;;;;;;6.21;44.18;99276.09;5025725;28;20034;-53
2023/03/21 04:53:57;;;;;;;12.27;5.93;;;;;;;6.25;44.56;99273.09;5016282;28;20053;-53
2023/03/21 04:56:30;;;;;;;11.13;6.25;;;;;;;6.41;43.99;99287.97;5020368;28;20033;-56
2023/03/21 04:59:00;;;;;;;12.60;6.57;;;;;;;6.47;43.98;99272.41;5015619;28;20034;-55
2023/03/21 05:01:29;;;;;;;11.32;6.35;;;;;;;6.64;43.72;99272.16;5015734;28;20049;-57
2023/03/21 05:03:59;;;;;;;12.07;6.00;;;;;;;6.76;43.50;99268.56;5015752;28;20034;-57
2023/03/21 05:06:26;;;;;;;9.98;6.03;;;;;;;6.80;43.59;99270.03;5025284;28;20034;-57
2023/03/21 05:08:58;;;;;;;15.73;6.95;;;;;;;6.83;42.95;99271.63;5035178;28;20044;-57
2023/03/21 05:11:26;;;;;;;12.45;6.25;;;;;;;6.81;43.28;99260.25;5035408;28;20049;-53
2023/03/21 05:13:51;;;;;;;16.48;7.72;;;;;;;6.83;43.46;99276.97;5035322;28;20040;-53
2023/03/21 05:16:17;;;;;;;22.85;6.90;;;;;;;6.78;43.68;99271.13;5035126;28;20037;-51
2023/03/21 05:18:42;;;;;;;13.35;7.32;;;;;;;6.73;43.81;99266.97;5035267;28;20298;-54
2023/03/21 05:21:09;;;;;;;15.65;7.25;;;;;;;6.50;43.44;99242.09;5034885;28;20128;-53
2023/03/21 05:23:37;;;;;;;13.65;7.30;;;;;;;6.64;43.58;99272.16;5033484;28;20029;-56
2023/03/21 05:26:09;;;;;;;16.25;7.28;;;;;;;6.66;43.71;99267.56;5035796;28;20079;-55
2023/03/21 05:28:35;;;;;;;14.30;6.90;;;;;;;6.58;43.76;99268.97;5035152;28;20487;-59
2023/03/21 05:31:03;;;;;;;13.38;6.63;;;;;;;6.61;44.01;99278.53;5035479;28;20424;-56
2023/03/21 05:33:29;;;;;;;16.90;7.05;;;;;;;6.57;43.88;99277.91;5035100;28;20037;-57
2023/03/21 05:35:54;;;;;;;17.40;7.45;;;;;;;6.49;44.54;99247.50;5034229;28;20068;-57
2023/03/21 05:38:20;;;;;;;17.88;7.10;;;;;;;6.71;44.40;99273.41;5033114;28;20041;-56
2023/03/21 05:40:47;;;;;;;20.75;6.80;;;;;;;6.80;44.18;99271.88;5035372;28;20456;-55
2023/03/21 05:43:12;;;;;;;16.23;7.30;;;;;;;6.91;43.73;99269.25;5017593;28;20045;-57
2023/03/21 05:45:38;;;;;;;12.15;6.95;;;;;;;7.02;43.38;99261.31;5035052;28;20040;-56
2023/03/21 05:48:04;;;;;;;16.92;7.65;;;;;;;7.11;43.17;99264.25;5022174;28;20112;-54
2023/03/21 05:50:29;;;;;;;13.30;6.50;;;;;;;7.21;43.29;99273.22;5014051;28;20022;-56
2023/03/21 05:52:55;;;;;;;18.27;7.63;;;;;;;7.24;43.38;99265.03;5014940;28;20034;-56
2023/03/21 05:55:20;;;;;;;12.05;7.18;;;;;;;7.30;43.09;99263.69;5015000;28;20047;-54
2023/03/21 05:57:45;;;;;;;17.92;7.60;;;;;;;7.19;42.75;99235.22;5014087;28;20037;-56
2023/03/21 06:00:11;;;;;;;21.88;7.95;;;;;;;7.42;43.08;99267.25;5013845;28;20033;-54
2023/03/21 06:02:38;;;;;;;11.93;7.45;;;;;;;7.40;42.76;99264.72;5014378;28;20100;-56
2023/03/21 06:05:05;;;;;;;22.40;8.52;;;;;;;7.36;42.89;99271.25;5015294;28;20065;-53
2023/03/21 06:07:31;;;;;;;14.35;7.13;;;;;;;7.34;43.13;99270.47;5014854;28;20330;-52
2023/03/21 06:09:56;;;;;;;18.20;7.28;;;;;;;7.02;43.44;99208.09;5014514;28;20044;-55
2023/03/21 06:12:22;;;;;;;12.07;6.53;;;;;;;7.47;42.97;99271.25;5025327;28;20056;-54
2023/03/21 06:14:47;;;;;;;15.88;7.57;;;;;;;7.49;43.32;99257.84;5033593;28;20029;-57
2023/03/21 06:17:13;;;;;;;10.32;6.25;;;;;;;7.64;43.31;99254.94;5034475;28;20337;-58
2023/03/21 06:19:38;;;;;;;12.85;6.93;;;;;;;7.74;43.07;99269.25;5034013;28;20502;-54
2023/03/21 06:22:04;;;;;;;16.80;6.85;;;;;;;7.80;43.11;99266.09;5034431;28;20056;-56
2023/03/21 06:24:30;;;;;;;13.90;7.70;;;;;;;7.74;43.43;99254.09;5034144;28;20352;-57
2023/03/21 06:26:56;;;;;;;11.68;6.75;;;;;;;7.80;43.67;99260.78;5016953;28;20022;-55
2023/03/21 06:29:21;;;;;;;13.35;6.93;;;;;;;7.79;43.55;99258.22;5022181;28;20034;-58
2023/03/21 06:31:47;;;;;;;12.45;7.68;;;;;;;7.74;43.84;99245.28;5013180;28;20034;-55
2023/03/21 06:34:12;;;;;;;17.70;7.28;;;;;;;7.70;43.87;99254.44;5014465;28;20045;-56
2023/03/21 06:36:38;;;;;;;15.30;8.40;;;;;;;7.61;44.44;99246.22;5022549;28;20041;-62
2023/03/21 06:39:06;;;;;;;18.92;7.50;;;;;;;7.60;44.50;99244.50;5034400;28;20033;-56
2023/03/21 06:41:31;;;;;;;14.57;7.95;;;;;;;7.63;44.87;99248.78;5032645;28;20036;-58
2023/03/21 06:43:57;;;;;;;17.73;8.23;;;;;;;7.74;44.62;99235.44;5034183;28;20520;-53
2023/03/21 06:46:22;;;;;;;19.00;8.15;;;;;;;7.89;44.51;99243.22;5034161;28;20030;-53
2023/03/21 06:48:48;;;;;;;15.05;7.47;;;;;;;8.01;44.43;99236.06;5032760;28;20156;-55
2023/03/21 06:51:15;;;;;;;9.77;6.97;;;;;;;8.09;44.04;99200.78;5035647;28;20427;-57
2023/03/21 06:53:40;;;;;;;14.60;8.20;;;;;;;8.64;43.21;99229.31;5042396;28;20029;-58
2023/03/21 06:56:08;;;;;;;15.05;7.55;;;;;;;9.19;42.11;99229.19;5043617;28;20459;-56
2023/03/21 06:58:34;;;;;;;13.30;7.60;;;;;;;9.78;41.19;99221.50;5043997;28;20143;-53
2023/03/21 07:01:01;;;;;;;11.85;7.35;;;;;;;10.57;39.42;99229.78;5034733;28;20068;-57
2023/03/21 07:03:27;;;;;;;15.77;7.38;;;;;;;11.40;38.30;99224.00;5032190;28;20060;-57
2023/03/21 07:05:53;;;;;;;21.40;8.25;;;;;;;12.57;36.03;99221.00;5033439;28;20080;-57
2023/03/21 07:08:19;;;;;;;11.77;7.13;;;;;;;14.40;33.23;99213.16;5033127;28;20452;-58
2023/03/21 07:10:45;;;;;;;12.43;7.55;;;;;;;16.59;29.74;99180.97;5033214;28;20098;-56
2023/03/21 07:13:12;;;;;;;19.38;8.20;;;;;;;18.74;26.53;99213.09;5033379;28;20125;-55
2023/03/21 07:15:37;;;;;;;14.80;7.97;;;;;;;18.53;26.11;99180.53;5027368;28;20507;-55
2023/03/21 07:18:04;;;;;;;15.80;8.88;;;;;;;17.71;27.59;99221.16;5012804;28;20041;-57
2023/03/21 07:20:30;;;;;;;24.27;8.05;;;;;;;16.61;29.12;99211.38;5020395;28;20048;-56
2023/03/21 07:22:56;;;;;;;18.25;8.23;;;;;;;15.65;30.43;99219.50;5021249;28;20352;-61
2023/03/21 07:25:22;;;;;;;20.83;9.32;;;;;;;14.66;32.03;99212.22;5034137;28;20179;-60
2023/03/21 07:27:48;;;;;;;20.48;8.07;;;;;;;13.80;33.88;99208.72;5038222;28;20475;-61
2023/03/21 07:30:14;;;;;;;13.07;8.52;;;;;;;12.71;35.49;99180.19;5041528;28;20025;-59
2023/03/21 07:32:40;;;;;;;20.63;9.18;;;;;;;12.01;37.77;99183.44;5037870;28;20044;-57
2023/03/21 07:35:07;;;;;;;19.30;8.90;;;;;;;11.72;38.90;99213.91;5041184;28;20487;-56
2023/03/21 07:37:33;;;;;;;13.13;8.65;;;;;;;11.33;39.84;99212.16;5032095;28;20053;-62
2023/03/21 07:39:59;;;;;;;14.60;7.78;;;;;;;10.77;40.42;99180.63;5039630;28;20043;-51
2023/03/21 07:42:24;;;;;;;17.70;8.43;;;;;;;10.54;41.91;99195.28;5042823;28;20056;-55
2023/03/21 07:44:51;;;;;;;13.45;8.23;;;;;;;10.24;43.12;99210.41;5040991;28;20114;-58
2023/03/21 07:47:17;;;;;;;13.02;8.35;;;;;;;9.89;44.43;99202.72;5041964;28;20024;-61
2023/03/21 07:49:42;;;;;;;18.95;8.68;;;;;;;9.78;44.67;99200.13;5039357;28;20372;-60
2023/03/21 07:52:08;;;;;;;15.63;8.82;;;;;;;9.79;45.17;99215.19;5040642;28;20459;-57
2023/03/21 07:54:33;;;;;;;17.45;9.30;;;;;;;9.72;46.24;99206.00;5037912;28;20064;-54
2023/03/21 07:56:59;;;;;;;14.13;8.75;;;;;;;9.79;45.65;99207.16;5039619;28;20025;-58
2023/03/21 07:59:24;;;;;;;13.20;8.43;;;;;;;9.86;45.42;99197.63;5020777;28;20359;-58
2023/03/21 08:01:50;;;;;;;14.38;9.50;;;;;;;10.21;45.29;99200.81;5021399;28;20026;-57
2023/03/21 08:04:16;;;;;;;15.77;9.05;;;;;;;10.46;44.67;99196.84;5020048;28;20029;-58
2023/03/21 08:06:41;;;;;;;15.27;9.43;;;;;;;10.58;45.36;99194.88;5018911;28;20112;-60
2023/03/21 08:09:07;;;;;;;13.77;9.13;;;;;;;10.46;44.83;99142.44;5022892;28;20080;-59
2023/03/21 08:11:33;;;;;;;17.02;8.77;;;;;;;10.98;44.30;99192.22;5042106;28;20368;-60
2023/03/21 08:14:00;;;;;;;12.80;7.78;;;;;;;11.14;44.09;99191.63;5042510;28;20048;-54
2023/03/21 08:16:26;;;;;;;15.88;8.00;;;;;;;11.06;44.13;99190.47;5041084;28;20485;-57
2023/03/21 08:18:52;;;;;;;15.50;7.82;;;;;;;11.05;44.16;99188.78;5042260;28;20443;-55
2023/03/21 08:21:18;;;;;;;16.75;8.00;;;;;;;10.87;44.76;99195.88;5033476;28;20033;-54
2023/03/21 08:23:43;;;;;;;10.18;7.03;;;;;;;10.82;45.42;99187.41;5031328;28;20108;-59
2023/03/21 08:26:09;;;;;;;13.98;7.78;;;;;;;10.95;45.39;99187.09;5025549;28;20128;-58
2023/03/21 08:28:35;;;;;;;12.15;7.20;;;;;;;11.17;45.09;99191.34;5025874;28;20457;-55
2023/03/21 08:31:07;;;;;;;13.40;7.63;;;;;;;11.46;44.54;99191.28;5023971;28;20095;-52
2023/03/21 08:33:32;;;;;;;11.38;6.50;;;;;;;11.52;44.60;99183.63;5026726;28;20780;-54
2023/03/21 08:35:59;;;;;;;10.05;6.88;;;;;;;11.59;45.14;99190.97;5024558;28;20025;-58
2023/03/21 08:38:28;;;;;;;9.27;6.65;;;;;;;11.52;43.98;99189.81;5025522;28;20118;-57
2023/03/21 08:40:55;;;;;;;11.48;6.97;;;;;;;11.37;44.67;99189.44;5026093;28;20040;-55
2023/03/21 08:43:21;;;;;;;10.35;7.20;;;;;;;11.24;45.24;99186.25;5031578;28;20036;-58
2023/03/21 08:45:47;;;;;;;12.02;6.68;;;;;;;11.23;45.77;99185.38;5040783;28;20032;-58
2023/03/21 08:48:12;;;;;;;12.35;6.65;;;;;;;11.19;46.43;99184.00;5040871;28;20082;-65
2023/03/21 08:50:38;;;;;;;15.90;7.05;;;;;;;11.16;46.29;99178.94;5026329;28;20121;-55
2023/03/21 08:53:04;;;;;;;11.88;7.65;;;;;;;11.16;45.79;99174.41;5045111;28;20032;-57
2023/03/21 08:55:32;;;;;;;14.43;8.50;;;;;;;11.26;46.00;99179.75;5047956;28;20378;-56
2023/03/21 08:57:58;;;;;;;11.25;7.75;;;;;;;11.16;45.28;99155.63;5026045;28;20091;-57
2023/03/21 09:00:24;;;;;;;12.00;8.43;;;;;;;11.20;45.95;99181.16;5017755;28;20112;-59
2023/03/21 09:02:51;;;;;;;13.18;8.82;;;;;;;11.14;46.67;99186.25;5024588;28;20076;-54
2023/03/21 09:05:17;;;;;;;14.20;8.25;;;;;;;11.14;46.43;99181.75;5024519;28;20061;-61
2023/03/21 09:07:43;;;;;;;12.88;7.60;;;;;;;11.21;46.43;99182.00;5022375;28;20030;-64
2023/03/21 09:10:12;;;;;;;13.05;7.88;;;;;;;11.29;46.40;99179.44;5024375;28;20029;-56
2023/03/21 09:12:39;;;;;;;10.93;7.38;;;;;;;11.22;45.90;99161.44;5023636;28;20033;-57
2023/03/21 09:15:07;;;;;;;14.98;8.27;;;;;;;11.58;45.80;99191.94;5027084;28;20070;-61
2023/03/21 09:17:32;;;;;;;10.40;7.90;;;;;;;11.71;45.64;99180.03;5025004;28;20137;-58
2023/03/21 09:19:59;;;;;;;10.75;7.70;;;;;;;12.01;44.90;99175.41;5023395;28;20025;-57
2023/03/21 09:22:26;;;;;;;15.05;8.85;;;;;;;12.27;44.08;99180.06;5034043;28;20024;-56
2023/03/21 09:24:52;;;;;;;16.60;8.40;;;;;;;12.53;43.10;99176.63;5040728;28;20463;-54
2023/03/21 09:27:20;;;;;;;17.00;9.35;;;;;;;12.60;42.69;99172.38;5041982;28;20028;-52
2023/03/21 09:29:45;;;;;;;13.20;8.88;;;;;;;12.55;42.75;99163.94;5041120;28;20430;-52
2023/03/21 09:32:12;;;;;;;16.55;10.02;;;;;;;12.41;43.62;99174.19;5045300;28;20108;-57
2023/03/21 09:34:40;;;;;;;13.57;9.25;;;;;;;12.25;43.86;99168.63;5038278;28;20029;-51
2023/03/21 09:37:12;;;;;;;15.80;9.07;;;;;;;12.05;44.33;99166.06;5035207;28;20533;-53
2023/03/21 09:39:43;;;;;;;14.40;9.15;;;;;;;12.09;44.32;99164.78;5031287;28;20064;-59
2023/03/21 09:42:43;;;;;;;11.07;8.43;;;;;;;12.28;43.90;99161.13;5018887;28;20048;-60
2023/03/21 09:45:17;;;;;;;10.75;7.88;;;;;;;12.26;44.08;99156.91;5022867;28;20033;-60
2023/03/21 09:47:51;;;;;;;8.85;6.57;;;;;;;12.37;43.50;99158.53;5029133;28;20057;-61
2023/03/21 09:50:30;;;;;;;10.63;7.32;;;;;;;12.44;43.35;99147.03;5041710;28;20057;-58
2023/03/21 09:53:00;;;;;;;10.13;7.53;;;;;;;12.51;44.03;99146.41;5030440;28;20100;-55
2023/03/21 09:55:33;;;;;;;10.70;7.47;;;;;;;12.57;43.33;99135.06;5044385;28;20556;-57
2023/03/21 09:57:59;;;;;;;9.30;6.18;;;;;;;12.53;43.20;99139.91;5041583;28;20040;-57
2023/03/21 10:00:33;;;;;;;9.20;6.88;;;;;;;12.64;43.26;99136.16;5043406;28;20025;-56
2023/03/21 10:03:06;;;;;;;9.00;6.60;;;;;;;12.84;42.80;99136.81;5038495;28;20087;-55
2023/03/21 10:05:33;;;;;;;10.68;6.55;;;;;;;13.00;41.88;99127.19;5041183;28;20037;-68
2023/03/21 10:08:10;;;;;;;7.00;6.03;;;;;;;13.05;42.02;99130.25;5041045;28;20413;-66
2023/03/21 10:10:44;;;;;;;9.25;6.13;;;;;;;13.15;41.72;99125.63;5040954;28;20037;-66
2023/03/21 10:13:15;;;;;;;8.88;6.60;;;;;;;13.18;41.65;99121.75;5040983;28;20421;-71
2023/03/21 10:15:41;;;;;;;8.13;6.47;;;;;;;13.13;41.64;99118.72;5043216;28;20094;-65
2023/03/21 10:18:12;;;;;;;10.50;6.82;;;;;;;13.16;42.08;99113.03;5053308;28;20394;-63
2023/03/21 10:20:41;;;;;;;8.65;6.22;;;;;;;13.21;41.23;99105.31;5054379;28;20041;-63
2023/03/21 10:23:13;;;;;;;7.47;6.10;;;;;;;13.29;41.15;99117.97;5021036;28;20429;-64
2023/03/21 10:25:43;;;;;;;8.38;6.00;;;;;;;13.17;41.05;99114.69;5014961;28;20059;-63
2023/03/21 10:28:16;;;;;;;10.32;6.60;;;;;;;13.04;41.09;99113.28;5014465;28;20115;-63
2023/03/21 10:30:57;;;;;;;8.13;5.95;;;;;;;12.87;41.62;99117.69;5014399;28;20029;-64
2023/03/21 10:33:26;;;;;;;9.13;7.22;;;;;;;12.57;41.85;99100.16;5013799;28;20439;-64
2023/03/21 10:35:56;;;;;;;9.65;6.88;;;;;;;12.45;42.00;99103.06;5014390;28;20061;-63
2023/03/21 10:38:24;;;;;;;9.88;6.88;;;;;;;12.46;42.31;99104.75;5020539;28;20412;-68
2023/03/21 10:40:50;;;;;;;8.70;5.85;;;;;;;12.65;41.45;99092.19;5033886;28;20140;-63
2023/03/21 10:43:19;;;;;;;9.85;6.45;;;;;;;12.62;41.32;99065.63;5033148;28;20429;-63
2023/03/21 10:45:46;;;;;;;10.15;5.82;;;;;;;12.93;40.38;99086.66;5033165;28;20391;-72
2023/03/21 10:48:12;;;;;;;8.27;6.05;;;;;;;12.94;40.55;99088.34;5033877;28;20116;-63
2023/03/21 10:50:37;;;;;;;8.88;6.20;;;;;;;12.72;40.95;99081.66;5033296;28;20127;-63
2023/03/21 10:53:16;;;;;;;9.40;6.45;;;;;;;12.62;41.40;99095.19;5031571;28;20025;-66
2023/03/21 10:55:42;;;;;;;8.02;6.18;;;;;;;12.41;41.35;99079.38;5032940;28;20372;-63
2023/03/21 10:58:17;;;;;;;10.02;6.47;;;;;;;12.22;41.38;99061.59;5032651;28;20125;-64
2023/03/21 11:00:45;;;;;;;7.07;5.95;;;;;;;12.20;41.36;99083.22;5033266;28;20034;-64
2023/03/21 11:03:22;;;;;;;8.32;5.70;;;;;;;12.18;41.86;99088.72;5033272;28;20076;-64
2023/03/21 11:05:48;;;;;;;9.13;6.05;;;;;;;11.92;42.14;99089.44;5032116;28;20038;-64
2023/03/21 11:08:17;;;;;;;9.23;5.68;;;;;;;11.80;42.31;99089.81;5027312;28;20069;-65
2023/03/21 11:11:11;;;;;;;9.43;6.13;;;;;;;11.71;42.49;99092.41;5017760;28;20038;-65
2023/03/21 11:13:44;;;;;;;9.07;5.65;;;;;;;11.59;42.75;99090.91;5041632;28;20095;-64
2023/03/21 11:16:11;;;;;;;8.75;6.00;;;;;;;11.41;42.83;99083.63;5041649;28;20034;-66
2023/03/21 11:18:48;;;;;;;8.20;6.13;;;;;;;11.33;43.25;99083.53;5019592;28;20108;-65
2023/03/21 11:21:15;;;;;;;10.32;5.90;;;;;;;11.26;43.08;99096.66;5049708;28;20025;-65
2023/03/21 11:23:46;;;;;;;9.45;5.68;;;;;;;11.25;43.36;99081.59;5039771;28;20025;-66
2023/03/21 11:26:27;;;;;;;9.95;6.60;;;;;;;11.26;42.88;99055.66;5012798;28;20072;-65
2023/03/21 11:28:54;;;;;;;9.05;5.68;;;;;;;11.37;42.27;99081.41;5013044;28;20099;-64
2023/03/21 11:31:20;;;;;;;7.50;5.35;;;;;;;11.32;41.89;99071.97;5013059;28;20037;-66
2023/03/21 11:34:00;;;;;;;10.93;6.22;;;;;;;11.37;42.00;99071.53;5012570;28;20054;-65
2023/03/21 11:36:32;;;;;;;9.43;5.78;;;;;;;11.26;41.99;99072.56;5011545;28;20368;-66
2023/03/21 11:39:11;;;;;;;10.55;6.18;;;;;;;11.11;42.02;99074.03;5019479;28;20547;-65